createdAt,value
2023-05-19T00:01:24.912Z,11.80
2023-05-19T00:04:03.323Z,11.70
2023-05-19T00:06:36.914Z,11.70
2023-05-19T00:09:47.134Z,11.60
2023-05-19T00:13:09.105Z,11.60
2023-05-19T00:15:43.126Z,11.50
2023-05-19T00:18:53.549Z,11.50
2023-05-19T00:21:51.357Z,11.50
2023-05-19T00:24:31.565Z,11.40
2023-05-19T00:27:11.166Z,11.40
2023-05-19T00:30:17.951Z,11.50
2023-05-19T00:32:59.051Z,11.40
2023-05-19T00:35:31.488Z,11.40
2023-05-19T00:38:03.887Z,11.40
2023-05-19T00:40:41.865Z,11.40
2023-05-19T00:43:17.253Z,11.40
2023-05-19T00:45:54.216Z,11.40
2023-05-19T00:48:27.543Z,11.40
2023-05-19T00:51:04.848Z,11.40
2023-05-19T00:53:43.668Z,11.40
2023-05-19T00:56:21.886Z,11.40
2023-05-19T00:58:58.566Z,11.40
2023-05-19T01:01:41.113Z,11.30
2023-05-19T01:05:12.483Z,11.30
2023-05-19T01:08:19.863Z,11.30
2023-05-19T01:11:12.065Z,11.20
2023-05-19T01:13:53.824Z,11.10
2023-05-19T01:17:07.008Z,11.20
2023-05-19T01:20:19.629Z,11.10
2023-05-19T01:23:11.126Z,11.10
2023-05-19T01:26:09.470Z,11.10
2023-05-19T01:29:28.585Z,11.10
2023-05-19T01:32:23.534Z,11.00
2023-05-19T01:34:58.135Z,11.00
2023-05-19T01:37:31.949Z,10.90
2023-05-19T01:40:06.214Z,11.00
2023-05-19T01:42:41.003Z,11.00
2023-05-19T01:45:13.610Z,11.00
2023-05-19T01:47:48.555Z,11.00
2023-05-19T01:50:24.748Z,11.00
2023-05-19T01:52:57.525Z,11.00
2023-05-19T01:55:30.777Z,11.00
2023-05-19T01:58:29.243Z,11.00
2023-05-19T02:01:31.081Z,11.00
2023-05-19T02:04:48.984Z,10.90
2023-05-19T02:07:59.938Z,11.00
2023-05-19T02:11:02.903Z,10.90
2023-05-19T02:13:45.958Z,10.90
2023-05-19T02:16:25.115Z,10.90
2023-05-19T02:18:59.614Z,10.90
2023-05-19T02:21:32.136Z,10.80
2023-05-19T02:24:04.606Z,10.80
2023-05-19T02:26:38.040Z,10.80
2023-05-19T02:29:10.162Z,10.80
2023-05-19T02:31:42.608Z,10.80
2023-05-19T02:34:14.916Z,10.80
2023-05-19T02:36:49.935Z,10.80
2023-05-19T02:39:22.766Z,10.80
2023-05-19T02:41:54.784Z,10.80
2023-05-19T02:44:26.867Z,10.80
2023-05-19T02:46:59.148Z,10.80
2023-05-19T02:49:36.009Z,10.80
2023-05-19T02:52:08.701Z,10.80
2023-05-19T02:54:40.926Z,10.70
2023-05-19T02:57:13.103Z,10.70
2023-05-19T02:59:45.280Z,10.70
2023-05-19T03:02:17.342Z,10.70
2023-05-19T03:04:49.403Z,10.70
2023-05-19T03:07:25.211Z,10.70
2023-05-19T03:09:57.784Z,10.70
2023-05-19T03:12:30.323Z,10.70
2023-05-19T03:15:03.915Z,10.70
2023-05-19T03:17:36.752Z,10.70
2023-05-19T03:20:10.940Z,10.60
2023-05-19T03:22:43.088Z,10.60
2023-05-19T03:25:15.110Z,10.60
2023-05-19T03:27:47.529Z,10.60
2023-05-19T03:30:19.613Z,10.60
2023-05-19T03:32:52.217Z,10.50
2023-05-19T03:35:24.425Z,10.50
2023-05-19T03:37:56.699Z,10.50
2023-05-19T03:40:28.888Z,10.40
2023-05-19T03:43:01.246Z,10.40
2023-05-19T03:45:33.396Z,10.40
2023-05-19T03:48:06.121Z,10.30
2023-05-19T03:50:38.654Z,10.30
2023-05-19T03:53:10.776Z,10.20
2023-05-19T03:55:44.524Z,10.20
2023-05-19T03:58:17.146Z,10.10
2023-05-19T04:00:49.817Z,10.20
2023-05-19T04:03:22.538Z,10.10
2023-05-19T04:05:56.772Z,10.10
2023-05-19T04:08:28.996Z,10.10
2023-05-19T04:11:01.514Z,10.10
2023-05-19T04:13:34.462Z,10.00
2023-05-19T04:16:07.460Z,10.00
2023-05-19T04:18:39.769Z,10.00
2023-05-19T04:21:11.935Z,10.00
2023-05-19T04:23:44.270Z,9.90
2023-05-19T04:26:16.586Z,10.00
2023-05-19T04:28:50.159Z,10.00
2023-05-19T04:31:24.248Z,10.00
2023-05-19T04:33:56.876Z,10.00
2023-05-19T04:36:28.887Z,10.20
2023-05-19T04:39:03.673Z,10.00
2023-05-19T04:41:40.610Z,10.10
2023-05-19T04:44:18.376Z,10.10
2023-05-19T04:46:54.454Z,10.10
2023-05-19T04:49:28.619Z,10.10
2023-05-19T04:52:01.377Z,10.10
2023-05-19T04:54:39.145Z,10.10
2023-05-19T04:57:12.561Z,10.20
2023-05-19T04:59:44.775Z,10.30
2023-05-19T05:02:17.239Z,10.30
2023-05-19T05:04:49.545Z,10.40
2023-05-19T05:07:22.831Z,10.40
2023-05-19T05:09:54.908Z,10.50
2023-05-19T05:12:27.473Z,10.50
2023-05-19T05:15:00.256Z,10.60
2023-05-19T05:17:33.907Z,10.70
2023-05-19T05:20:07.318Z,10.80
2023-05-19T05:22:41.013Z,10.80
2023-05-19T05:25:14.283Z,10.90
2023-05-19T05:27:48.042Z,10.90
2023-05-19T05:30:20.181Z,11.00
2023-05-19T05:32:52.482Z,11.10
2023-05-19T05:35:24.787Z,11.20
2023-05-19T05:37:57.077Z,11.30
2023-05-19T05:40:29.622Z,11.40
2023-05-19T05:43:01.643Z,11.50
2023-05-19T05:45:33.840Z,11.60
2023-05-19T05:48:06.658Z,11.80
2023-05-19T05:50:39.602Z,11.90
2023-05-19T05:53:19.377Z,12.00
2023-05-19T05:55:53.581Z,12.20
2023-05-19T05:58:26.161Z,12.30
2023-05-19T06:00:59.781Z,12.40
2023-05-19T06:03:35.020Z,12.60
2023-05-19T06:06:11.824Z,12.90
2023-05-19T06:08:44.141Z,13.10
2023-05-19T06:11:16.494Z,13.50
2023-05-19T06:13:50.668Z,13.80
2023-05-19T06:16:23.272Z,14.10
2023-05-19T06:18:56.068Z,14.30
2023-05-19T06:21:30.082Z,14.80
2023-05-19T06:24:02.546Z,15.00
2023-05-19T06:26:35.098Z,15.40
2023-05-19T06:29:07.375Z,15.70
2023-05-19T06:31:39.787Z,16.20
2023-05-19T06:34:12.596Z,16.80
2023-05-19T06:36:48.378Z,17.00
2023-05-19T06:39:20.457Z,17.70
2023-05-19T06:41:52.631Z,18.40
2023-05-19T06:44:24.836Z,19.00
2023-05-19T06:46:57.148Z,19.50
2023-05-19T06:49:30.661Z,19.90
2023-05-19T06:52:03.211Z,20.00
2023-05-19T06:54:35.755Z,19.90
2023-05-19T06:57:08.742Z,19.50
2023-05-19T06:59:44.349Z,19.30
2023-05-19T07:02:18.436Z,19.10
2023-05-19T07:04:54.463Z,18.60
2023-05-19T07:07:30.503Z,18.10
2023-05-19T07:10:04.724Z,17.80
2023-05-19T07:12:37.662Z,17.60
2023-05-19T07:15:10.129Z,17.50
2023-05-19T07:17:42.399Z,17.40
2023-05-19T07:20:15.164Z,17.30
2023-05-19T07:22:47.625Z,17.10
2023-05-19T07:25:19.880Z,16.90
2023-05-19T07:27:52.102Z,16.60
2023-05-19T07:30:24.311Z,16.40
2023-05-19T07:32:58.709Z,16.10
2023-05-19T07:35:30.909Z,15.90
2023-05-19T07:38:03.912Z,15.60
2023-05-19T07:40:36.248Z,15.50
2023-05-19T07:43:08.633Z,15.40
2023-05-19T07:45:42.396Z,15.30
2023-05-19T07:48:14.863Z,15.20
2023-05-19T07:50:50.638Z,15.10
2023-05-19T07:53:23.460Z,15.10
2023-05-19T07:55:58.396Z,15.10
2023-05-19T07:58:31.151Z,15.10
2023-05-19T08:01:03.508Z,15.10
2023-05-19T08:03:36.140Z,15.20
2023-05-19T08:06:08.503Z,15.20
2023-05-19T08:08:42.215Z,15.20
2023-05-19T08:11:14.664Z,15.30
2023-05-19T08:13:49.148Z,15.30
2023-05-19T08:16:22.056Z,15.40
2023-05-19T08:18:55.335Z,15.30
2023-05-19T08:21:27.405Z,15.30
2023-05-19T08:23:59.857Z,15.20
2023-05-19T08:26:33.780Z,15.20
2023-05-19T08:29:07.313Z,15.00
2023-05-19T08:31:40.023Z,15.00
2023-05-19T08:34:12.763Z,15.00
2023-05-19T08:36:45.696Z,15.00
2023-05-19T08:39:24.217Z,14.90
2023-05-19T08:41:58.322Z,15.00
2023-05-19T08:44:31.145Z,15.00
2023-05-19T08:47:12.816Z,15.00
2023-05-19T08:49:48.982Z,15.00
2023-05-19T08:52:42.040Z,14.90
2023-05-19T08:55:55.488Z,14.90
2023-05-19T08:58:35.609Z,14.90
2023-05-19T09:01:17.114Z,15.00
2023-05-19T09:03:50.986Z,15.00
2023-05-19T09:06:23.484Z,14.90
2023-05-19T09:08:56.486Z,15.00
2023-05-19T09:11:29.761Z,15.00
2023-05-19T09:14:02.285Z,15.00
2023-05-19T09:16:35.852Z,15.10
2023-05-19T09:19:15.429Z,15.20
2023-05-19T09:22:00.481Z,15.20
2023-05-19T09:24:34.747Z,15.30
2023-05-19T09:27:07.394Z,15.30
2023-05-19T09:29:39.888Z,15.30
2023-05-19T09:32:12.524Z,15.30
2023-05-19T09:34:55.216Z,15.30
2023-05-19T09:37:28.815Z,15.40
2023-05-19T09:40:01.522Z,15.40
2023-05-19T09:42:38.186Z,15.40
2023-05-19T09:45:11.694Z,15.40
2023-05-19T09:47:44.041Z,15.30
2023-05-19T09:50:17.313Z,15.30
2023-05-19T09:52:50.424Z,15.30
2023-05-19T09:55:26.982Z,15.40
2023-05-19T09:58:04.333Z,15.40
2023-05-19T10:00:38.928Z,15.40
2023-05-19T10:03:12.610Z,15.40
2023-05-19T10:05:46.544Z,15.50
2023-05-19T10:08:20.033Z,15.60
2023-05-19T10:10:53.447Z,15.60
2023-05-19T10:13:27.024Z,15.80
2023-05-19T10:16:01.386Z,15.90
2023-05-19T10:18:37.517Z,15.90
2023-05-19T10:21:13.513Z,16.00
2023-05-19T10:23:46.002Z,16.00
2023-05-19T10:26:18.809Z,16.00
2023-05-19T10:28:51.817Z,16.10
2023-05-19T10:31:25.246Z,16.10
2023-05-19T10:34:22.200Z,16.10
2023-05-19T10:37:45.586Z,16.10
2023-05-19T10:40:33.385Z,16.00
2023-05-19T10:43:16.869Z,16.00
2023-05-19T10:46:08.357Z,16.00
2023-05-19T10:48:45.644Z,15.90
2023-05-19T10:51:17.868Z,16.00
2023-05-19T10:53:51.029Z,16.10
2023-05-19T10:56:31.328Z,16.20
2023-05-19T10:59:31.715Z,16.30
2023-05-19T11:02:09.495Z,16.30
2023-05-19T11:05:09.746Z,16.30
2023-05-19T11:08:06.163Z,16.30
2023-05-19T11:10:39.525Z,16.30
2023-05-19T11:13:22.671Z,16.30
2023-05-19T11:15:58.083Z,16.20
2023-05-19T11:18:38.541Z,16.20
2023-05-19T11:21:11.606Z,16.10
2023-05-19T11:23:44.207Z,16.10
2023-05-19T11:26:36.802Z,16.10
2023-05-19T11:29:13.093Z,16.00
2023-05-19T11:31:45.589Z,16.00
2023-05-19T11:34:30.116Z,16.00
2023-05-19T11:37:16.526Z,16.10
2023-05-19T11:39:53.479Z,16.10
2023-05-19T11:42:25.715Z,16.20
2023-05-19T11:44:58.694Z,16.20
2023-05-19T11:47:42.551Z,16.30
2023-05-19T11:50:20.627Z,16.30
2023-05-19T11:52:54.630Z,16.30
2023-05-19T11:55:27.441Z,16.30
2023-05-19T11:58:04.732Z,16.30
2023-05-19T12:00:43.243Z,16.40
2023-05-19T12:03:22.707Z,16.40
2023-05-19T12:05:59.198Z,16.40
2023-05-19T12:08:35.799Z,16.50
2023-05-19T12:11:08.547Z,16.50
2023-05-19T12:13:43.001Z,16.40
2023-05-19T12:16:15.926Z,16.40
2023-05-19T12:18:51.287Z,16.50
2023-05-19T12:21:23.833Z,16.50
2023-05-19T12:24:08.137Z,16.50
2023-05-19T12:26:41.963Z,16.50
2023-05-19T12:29:15.638Z,16.60
2023-05-19T12:31:50.440Z,16.60
2023-05-19T12:34:23.703Z,16.60
2023-05-19T12:36:58.564Z,16.60
2023-05-19T12:39:34.159Z,16.60
2023-05-19T12:42:16.195Z,16.60
2023-05-19T12:44:52.411Z,16.60
2023-05-19T12:47:35.401Z,16.60
2023-05-19T12:50:10.345Z,16.50
2023-05-19T12:52:50.237Z,16.40
2023-05-19T12:55:24.630Z,16.50
2023-05-19T12:57:58.568Z,16.30
2023-05-19T13:00:45.738Z,16.20
2023-05-19T13:03:21.524Z,16.20
2023-05-19T13:05:54.099Z,16.10
2023-05-19T13:08:27.776Z,16.00
2023-05-19T13:11:00.655Z,15.90
2023-05-19T13:13:33.215Z,15.90
2023-05-19T13:16:05.906Z,15.80
2023-05-19T13:18:38.534Z,15.80
2023-05-19T13:21:10.737Z,15.80
2023-05-19T13:23:42.963Z,15.80
2023-05-19T13:26:15.115Z,15.90
2023-05-19T13:28:47.876Z,15.90
2023-05-19T13:31:20.092Z,16.00
2023-05-19T13:33:52.465Z,16.00
2023-05-19T13:36:26.578Z,16.20
2023-05-19T13:38:58.902Z,16.20
2023-05-19T13:41:32.393Z,16.30
2023-05-19T13:44:04.588Z,16.40
2023-05-19T13:46:44.832Z,16.50
2023-05-19T13:49:18.476Z,16.50
2023-05-19T13:51:50.840Z,16.50
2023-05-19T13:54:27.129Z,16.60
2023-05-19T13:56:59.424Z,16.50
2023-05-19T13:59:31.676Z,16.40
2023-05-19T14:02:05.831Z,16.30
2023-05-19T14:04:39.373Z,16.30
2023-05-19T14:07:11.619Z,16.20
2023-05-19T14:09:43.956Z,16.10
2023-05-19T14:12:17.108Z,16.00
2023-05-19T14:14:50.093Z,16.00
2023-05-19T14:17:22.536Z,15.90
2023-05-19T14:19:57.555Z,15.90
2023-05-19T14:22:30.967Z,15.90
2023-05-19T14:25:03.725Z,16.00
2023-05-19T14:27:36.473Z,15.90
2023-05-19T14:30:11.085Z,16.00
2023-05-19T14:32:43.565Z,16.00
2023-05-19T14:35:16.128Z,16.10
2023-05-19T14:37:48.381Z,16.20
2023-05-19T14:40:21.657Z,16.20
2023-05-19T14:42:53.817Z,16.30
2023-05-19T14:45:26.198Z,16.30
2023-05-19T14:47:59.605Z,16.30
2023-05-19T14:50:32.486Z,16.30
2023-05-19T14:53:05.472Z,16.30
2023-05-19T14:55:38.016Z,16.30
2023-05-19T14:58:26.992Z,16.30
2023-05-19T15:01:00.311Z,16.40
2023-05-19T15:03:32.498Z,16.40
2023-05-19T15:06:09.872Z,16.40
2023-05-19T15:08:42.323Z,16.40
2023-05-19T15:11:14.988Z,16.40
2023-05-19T15:13:47.192Z,16.40
2023-05-19T15:16:19.376Z,16.30
2023-05-19T15:18:52.093Z,16.30
2023-05-19T15:21:24.702Z,16.30
2023-05-19T15:23:57.082Z,16.30
2023-05-19T15:26:29.850Z,16.30
2023-05-19T15:29:03.039Z,16.30
2023-05-19T15:31:37.364Z,16.30
2023-05-19T15:34:10.370Z,16.30
2023-05-19T15:36:42.519Z,16.30
2023-05-19T15:39:14.880Z,16.40
2023-05-19T15:41:47.090Z,16.50
2023-05-19T15:44:20.911Z,16.50
2023-05-19T15:46:53.449Z,16.60
2023-05-19T15:49:25.720Z,16.60
2023-05-19T15:51:58.511Z,16.60
2023-05-19T15:54:31.112Z,16.70
2023-05-19T15:57:03.499Z,16.70
2023-05-19T15:59:36.435Z,16.70
2023-05-19T16:02:09.344Z,16.80
2023-05-19T16:04:42.082Z,16.80
2023-05-19T16:07:14.327Z,16.70
2023-05-19T16:09:47.690Z,16.70
2023-05-19T16:12:20.931Z,16.70
2023-05-19T16:14:53.615Z,16.70
2023-05-19T16:17:27.101Z,16.80
2023-05-19T16:19:59.337Z,16.80
2023-05-19T16:22:31.532Z,16.90
2023-05-19T16:25:04.067Z,16.90
2023-05-19T16:27:37.009Z,17.00
2023-05-19T16:30:09.662Z,17.00
2023-05-19T16:32:43.020Z,17.00
2023-05-19T16:35:15.245Z,17.00
2023-05-19T16:37:47.426Z,17.00
2023-05-19T16:40:20.955Z,17.10
2023-05-19T16:42:53.815Z,17.10
2023-05-19T16:45:26.638Z,17.10
2023-05-19T16:47:59.198Z,17.10
2023-05-19T16:50:31.749Z,17.10
2023-05-19T16:53:04.578Z,17.20
2023-05-19T16:55:36.881Z,17.20
2023-05-19T16:58:11.661Z,17.20
2023-05-19T17:00:44.091Z,17.20
2023-05-19T17:03:16.347Z,17.20
2023-05-19T17:05:49.076Z,17.20
2023-05-19T17:08:21.332Z,17.20
2023-05-19T17:10:53.804Z,17.20
2023-05-19T17:13:28.375Z,17.20
2023-05-19T17:16:04.805Z,17.30
2023-05-19T17:18:37.576Z,17.30
2023-05-19T17:21:09.970Z,17.40
2023-05-19T17:23:42.220Z,17.40
2023-05-19T17:26:15.922Z,17.40
2023-05-19T17:28:48.796Z,17.30
2023-05-19T17:31:21.458Z,17.20
2023-05-19T17:33:53.912Z,17.20
2023-05-19T17:36:26.752Z,17.10
2023-05-19T17:39:00.142Z,17.00
2023-05-19T17:41:32.915Z,17.00
2023-05-19T17:44:06.953Z,16.90
2023-05-19T17:46:39.659Z,16.90
2023-05-19T17:49:13.169Z,16.80
2023-05-19T17:51:46.361Z,16.70
2023-05-19T17:54:19.203Z,16.60
2023-05-19T17:56:55.406Z,16.50
2023-05-19T17:59:30.676Z,16.50
2023-05-19T18:02:04.373Z,16.40
2023-05-19T18:04:38.769Z,16.30
2023-05-19T18:07:14.289Z,16.30
2023-05-19T18:09:52.198Z,16.20
2023-05-19T18:12:26.354Z,16.20
2023-05-19T18:14:59.646Z,16.10
2023-05-19T18:17:32.485Z,16.10
2023-05-19T18:20:05.600Z,16.00
2023-05-19T18:22:38.870Z,16.00
2023-05-19T18:25:11.623Z,15.90
2023-05-19T18:27:45.301Z,15.90
2023-05-19T18:30:18.962Z,15.80
2023-05-19T18:32:53.467Z,15.70
2023-05-19T18:35:26.492Z,15.60
2023-05-19T18:37:58.925Z,15.60
2023-05-19T18:40:34.891Z,15.50
2023-05-19T18:43:07.991Z,15.40
2023-05-19T18:45:40.586Z,15.30
2023-05-19T18:48:13.994Z,15.20
2023-05-19T18:50:47.046Z,15.10
2023-05-19T18:53:23.617Z,15.10
2023-05-19T18:55:56.897Z,15.00
2023-05-19T18:58:30.072Z,14.90
2023-05-19T19:01:02.748Z,14.80
2023-05-19T19:03:36.783Z,14.70
2023-05-19T19:06:11.051Z,14.60
2023-05-19T19:08:45.291Z,14.50
2023-05-19T19:11:19.491Z,14.40
2023-05-19T19:13:55.490Z,14.30
2023-05-19T19:16:28.104Z,14.10
2023-05-19T19:19:01.155Z,14.10
2023-05-19T19:21:35.078Z,14.10
2023-05-19T19:24:07.939Z,14.00
2023-05-19T19:26:41.168Z,14.00
2023-05-19T19:29:17.125Z,13.90
2023-05-19T19:31:52.940Z,13.90
2023-05-19T19:34:25.857Z,13.80
2023-05-19T19:36:59.216Z,13.80
2023-05-19T19:39:34.786Z,13.80
2023-05-19T19:42:10.201Z,13.70
2023-05-19T19:44:43.559Z,13.70
2023-05-19T19:47:17.234Z,13.70
2023-05-19T19:49:52.642Z,13.60
2023-05-19T19:52:26.536Z,13.60
2023-05-19T19:55:00.248Z,13.60
2023-05-19T19:57:34.491Z,13.60
2023-05-19T20:00:08.996Z,13.60
2023-05-19T20:02:55.693Z,13.60
2023-05-19T20:05:38.539Z,13.60
2023-05-19T20:08:11.145Z,13.70
2023-05-19T20:10:44.155Z,13.70
2023-05-19T20:13:19.180Z,13.60
2023-05-19T20:15:51.670Z,13.60
2023-05-19T20:18:26.235Z,13.60
2023-05-19T20:21:00.829Z,13.70
2023-05-19T20:23:34.051Z,13.60
2023-05-19T20:26:12.499Z,13.60
2023-05-19T20:28:46.630Z,13.70
2023-05-19T20:31:21.731Z,13.60
2023-05-19T20:33:56.254Z,13.60
2023-05-19T20:36:29.102Z,13.60
2023-05-19T20:39:02.783Z,13.60
2023-05-19T20:41:36.245Z,13.60
2023-05-19T20:44:10.466Z,13.60
2023-05-19T20:46:43.227Z,13.60
2023-05-19T20:49:15.659Z,13.60
2023-05-19T20:51:47.825Z,13.60
2023-05-19T20:54:20.541Z,13.60
2023-05-19T20:56:53.447Z,13.60
2023-05-19T20:59:26.297Z,13.60
2023-05-19T21:01:58.889Z,13.60
2023-05-19T21:04:34.849Z,13.50
2023-05-19T21:07:07.726Z,13.60
2023-05-19T21:09:40.114Z,13.50
2023-05-19T21:12:16.224Z,13.50
2023-05-19T21:14:48.957Z,13.50
2023-05-19T21:17:22.361Z,13.50
2023-05-19T21:19:58.156Z,13.50
2023-05-19T21:22:31.497Z,13.40
2023-05-19T21:25:04.205Z,13.40
2023-05-19T21:27:39.733Z,13.40
2023-05-19T21:30:14.072Z,13.40
2023-05-19T21:32:46.731Z,13.40
2023-05-19T21:35:19.275Z,13.30
2023-05-19T21:37:51.726Z,13.30
2023-05-19T21:40:24.155Z,13.30
2023-05-19T21:42:57.028Z,13.30
2023-05-19T21:45:29.479Z,13.30
2023-05-19T21:48:01.734Z,13.30
2023-05-19T21:50:43.174Z,13.30
2023-05-19T21:53:15.293Z,13.30
2023-05-19T21:55:47.673Z,13.20
2023-05-19T21:58:20.590Z,13.20
2023-05-19T22:00:56.946Z,13.10
2023-05-19T22:03:30.676Z,13.10
2023-05-19T22:06:03.244Z,13.10
2023-05-19T22:08:38.353Z,13.00
2023-05-19T22:11:10.938Z,13.00
2023-05-19T22:13:47.026Z,13.00
2023-05-19T22:16:19.488Z,12.90
2023-05-19T22:18:52.395Z,12.90
2023-05-19T22:21:24.563Z,12.80
2023-05-19T22:23:56.733Z,12.70
2023-05-19T22:26:28.989Z,12.70
2023-05-19T22:29:01.984Z,12.60
2023-05-19T22:31:34.236Z,12.60
2023-05-19T22:34:06.932Z,12.50
2023-05-19T22:36:39.504Z,12.40
2023-05-19T22:39:13.419Z,12.40
2023-05-19T22:41:46.046Z,12.30
2023-05-19T22:44:19.700Z,12.30
2023-05-19T22:46:52.322Z,12.20
2023-05-19T22:49:24.715Z,12.20
2023-05-19T22:51:58.576Z,12.10
2023-05-19T22:54:31.577Z,12.00
2023-05-19T22:57:03.795Z,11.90
2023-05-19T22:59:38.236Z,11.90
2023-05-19T23:02:11.880Z,11.80
2023-05-19T23:04:44.440Z,11.70
2023-05-19T23:07:16.692Z,11.70
2023-05-19T23:09:48.842Z,11.60
2023-05-19T23:12:20.952Z,11.60
2023-05-19T23:14:53.175Z,11.60
2023-05-19T23:17:25.358Z,11.50
2023-05-19T23:19:57.655Z,11.50
2023-05-19T23:22:30.086Z,11.40
2023-05-19T23:25:05.900Z,11.40
2023-05-19T23:27:38.563Z,11.40
2023-05-19T23:30:10.840Z,11.40
2023-05-19T23:32:42.995Z,11.40
2023-05-19T23:35:17.529Z,11.40
2023-05-19T23:37:51.108Z,11.40
2023-05-19T23:40:23.704Z,11.40
2023-05-19T23:42:55.881Z,11.40
2023-05-19T23:45:28.013Z,11.40
2023-05-19T23:48:00.351Z,11.50
2023-05-19T23:50:32.525Z,11.50
2023-05-19T23:53:04.644Z,11.50
2023-05-19T23:55:36.888Z,11.50
2023-05-19T23:58:08.929Z,11.50
